Terminal Aerodrome Forecast
Issued by NWS

Home | Current Version | Previous Version | Text Only | Print | Product List | Glossary On
Versions: 1 2 3 4 5 6 7 8 9 10 11 12 13 14 15 16 17 18 19 20 21 22 23 24 25 26 27 28 29
000
FTUS46 KLOX 180200 AAB
TAFSBP
TAF AMD
KSBP 180204Z 1802/1824 31012KT P6SM OVC016
     FM180500 VRB03KT 6SM BR OVC015
     FM181800 30005KT P6SM OVC020
     FM182000 30014KT P6SM BKN250=

USA.gov is the U.S. government's official web portal to all federal, state and local government web resources and services.